createdAt,value
2016-08-31T00:00:09.772Z,14.4
2016-08-31T00:00:33.991Z,14.3
2016-08-31T00:00:58.136Z,14.4
2016-08-31T00:01:23.053Z,14.4
2016-08-31T00:01:47.449Z,14.4
2016-08-31T00:02:11.598Z,14.4
2016-08-31T00:02:37.323Z,14.3
2016-08-31T00:03:01.471Z,14.3
2016-08-31T00:03:27.520Z,14.4
2016-08-31T00:03:51.655Z,14.4
2016-08-31T00:04:16.323Z,14.4
2016-08-31T00:04:40.474Z,14.3
2016-08-31T00:05:04.608Z,14.4
2016-08-31T00:05:28.793Z,14.4
2016-08-31T00:05:52.950Z,14.4
2016-08-31T00:06:17.092Z,14.4
2016-08-31T00:06:41.230Z,14.4
2016-08-31T00:07:05.392Z,14.4
2016-08-31T00:07:29.520Z,14.4
2016-08-31T00:07:53.677Z,14.3
2016-08-31T00:08:17.825Z,14.4
2016-08-31T00:08:41.965Z,14.3
2016-08-31T00:09:06.119Z,14.3
2016-08-31T00:09:30.256Z,14.4
2016-08-31T00:09:54.388Z,14.4
2016-08-31T00:10:18.522Z,14.3
2016-08-31T00:10:42.665Z,14.3
2016-08-31T00:11:06.817Z,14.4
2016-08-31T00:11:31.090Z,14.3
2016-08-31T00:11:55.432Z,14.3
2016-08-31T00:12:19.591Z,14.3
2016-08-31T00:12:43.738Z,14.2
2016-08-31T00:13:07.875Z,14.2
2016-08-31T00:13:32.032Z,14.3
2016-08-31T00:13:56.190Z,14.2
2016-08-31T00:14:20.367Z,14.3
2016-08-31T00:14:44.510Z,14.2
2016-08-31T00:15:08.630Z,14.2
2016-08-31T00:15:32.765Z,14.2
2016-08-31T00:15:56.914Z,14.2
2016-08-31T00:16:21.047Z,14.2
2016-08-31T00:16:45.201Z,14.2
2016-08-31T00:17:09.361Z,14.2
2016-08-31T00:17:33.539Z,14.3
2016-08-31T00:17:57.693Z,14.3
2016-08-31T00:18:21.935Z,14.2
2016-08-31T00:18:46.077Z,14.2
2016-08-31T00:19:10.209Z,14.2
2016-08-31T00:19:34.359Z,14.2
2016-08-31T00:19:58.517Z,14.2
2016-08-31T00:20:22.759Z,14.2
2016-08-31T00:20:46.915Z,14.2
2016-08-31T00:21:11.074Z,14.1
2016-08-31T00:21:35.228Z,14.2
2016-08-31T00:21:59.375Z,14.1
2016-08-31T00:22:23.540Z,14.1
2016-08-31T00:22:47.666Z,14.1
2016-08-31T00:23:11.916Z,14
2016-08-31T00:23:36.059Z,14.2
2016-08-31T00:24:00.215Z,14.1
2016-08-31T00:24:24.360Z,14.1
2016-08-31T00:24:48.479Z,14.1
2016-08-31T00:25:12.626Z,14.2
2016-08-31T00:25:37.346Z,14.1
2016-08-31T00:26:01.500Z,14.2
2016-08-31T00:26:25.643Z,14
2016-08-31T00:26:49.801Z,14.1
2016-08-31T00:27:13.954Z,14.1
2016-08-31T00:27:38.071Z,14.2
2016-08-31T00:28:02.211Z,14.1
2016-08-31T00:28:26.350Z,14.1
2016-08-31T00:28:50.508Z,14.1
2016-08-31T00:29:14.659Z,14
2016-08-31T00:29:38.794Z,14.1
2016-08-31T00:30:02.974Z,14
2016-08-31T00:30:30.543Z,14
2016-08-31T00:30:54.699Z,14
2016-08-31T00:31:18.840Z,14.1
2016-08-31T00:31:42.994Z,14
2016-08-31T00:32:07.164Z,14.1
2016-08-31T00:32:31.326Z,14
2016-08-31T00:32:55.467Z,14
2016-08-31T00:33:19.638Z,14
2016-08-31T00:33:43.805Z,14
2016-08-31T00:34:07.945Z,14
2016-08-31T00:34:32.085Z,14
2016-08-31T00:34:56.222Z,14
2016-08-31T00:35:20.447Z,14
2016-08-31T00:35:44.590Z,14
2016-08-31T00:36:08.729Z,14
2016-08-31T00:36:32.898Z,14
2016-08-31T00:36:57.068Z,14
2016-08-31T00:37:21.235Z,14
2016-08-31T00:37:45.377Z,13.9
2016-08-31T00:38:09.527Z,14
2016-08-31T00:38:33.695Z,14
2016-08-31T00:38:57.844Z,14
2016-08-31T00:39:21.995Z,14
2016-08-31T00:39:46.141Z,13.9
2016-08-31T00:40:10.320Z,14
2016-08-31T00:40:34.945Z,13.9
2016-08-31T00:40:59.093Z,13.9
2016-08-31T00:41:23.261Z,13.9
2016-08-31T00:41:47.420Z,13.9
2016-08-31T00:42:11.592Z,13.9
2016-08-31T00:42:35.753Z,13.9
2016-08-31T00:42:59.896Z,13.9
2016-08-31T00:43:24.043Z,13.9
2016-08-31T00:43:48.186Z,13.9
2016-08-31T00:44:12.318Z,13.8
2016-08-31T00:44:36.483Z,13.8
2016-08-31T00:45:00.629Z,13.9
2016-08-31T00:45:25.192Z,13.8
2016-08-31T00:45:49.326Z,13.9
2016-08-31T00:46:13.490Z,13.9
2016-08-31T00:46:37.655Z,13.9
2016-08-31T00:47:01.811Z,13.9
2016-08-31T00:47:25.940Z,13.9
2016-08-31T00:47:50.059Z,13.9
2016-08-31T00:48:14.210Z,13.9
2016-08-31T00:48:38.335Z,13.9
2016-08-31T00:49:02.470Z,13.9
2016-08-31T00:49:27.439Z,13.8
2016-08-31T00:49:51.571Z,13.9
2016-08-31T00:50:15.706Z,13.9
2016-08-31T00:50:39.855Z,13.9
2016-08-31T00:51:04.023Z,13.9
2016-08-31T00:51:28.170Z,13.8
2016-08-31T00:51:52.296Z,13.9
2016-08-31T00:52:16.468Z,13.8
2016-08-31T00:52:40.617Z,13.8
2016-08-31T00:53:04.796Z,13.9
2016-08-31T00:53:28.953Z,13.9
2016-08-31T00:53:53.092Z,13.8
2016-08-31T00:54:17.204Z,13.8
2016-08-31T00:54:41.346Z,13.8
2016-08-31T00:55:05.520Z,13.9
2016-08-31T00:55:29.666Z,13.9
2016-08-31T00:55:53.815Z,13.8
2016-08-31T00:56:17.966Z,13.8
2016-08-31T00:56:42.093Z,13.9
2016-08-31T00:57:06.216Z,13.9
2016-08-31T00:57:30.357Z,13.8
2016-08-31T00:57:54.506Z,13.8
2016-08-31T00:58:18.669Z,13.9
2016-08-31T00:58:42.805Z,13.8
2016-08-31T00:59:06.945Z,13.8
2016-08-31T00:59:31.103Z,13.9
2016-08-31T00:59:55.272Z,13.9
2016-08-31T01:00:19.708Z,13.8
2016-08-31T01:00:43.877Z,13.8
2016-08-31T01:01:08.025Z,13.8
2016-08-31T01:01:32.169Z,13.8
2016-08-31T01:01:56.309Z,13.8
2016-08-31T01:02:20.462Z,13.8
2016-08-31T01:02:44.601Z,13.7
2016-08-31T01:03:08.756Z,13.8
2016-08-31T01:03:32.893Z,13.7
2016-08-31T01:03:57.045Z,13.8
2016-08-31T01:04:21.194Z,13.7
2016-08-31T01:04:45.335Z,13.8
2016-08-31T01:05:09.489Z,13.7
2016-08-31T01:05:33.772Z,13.8
2016-08-31T01:05:57.946Z,13.8
2016-08-31T01:06:22.099Z,13.7
2016-08-31T01:06:46.223Z,13.7
2016-08-31T01:07:10.360Z,13.7
2016-08-31T01:07:34.501Z,13.6
2016-08-31T01:07:58.652Z,13.6
2016-08-31T01:08:22.775Z,13.7
2016-08-31T01:08:46.931Z,13.5
2016-08-31T01:09:11.077Z,13.6
2016-08-31T01:09:35.219Z,13.7
2016-08-31T01:09:59.338Z,13.6
2016-08-31T01:10:23.693Z,13.6
2016-08-31T01:10:47.846Z,13.6
2016-08-31T01:11:11.973Z,13.6
2016-08-31T01:11:36.121Z,13.6
2016-08-31T01:12:00.263Z,13.7
2016-08-31T01:12:24.428Z,13.6
2016-08-31T01:12:48.560Z,13.6
2016-08-31T01:13:12.704Z,13.5
2016-08-31T01:13:36.847Z,13.6
2016-08-31T01:14:01.015Z,13.6
2016-08-31T01:14:25.163Z,13.5
2016-08-31T01:14:49.310Z,13.5
2016-08-31T01:15:13.472Z,13.5
2016-08-31T01:15:37.643Z,13.5
2016-08-31T01:16:01.804Z,13.5
2016-08-31T01:16:25.967Z,13.5
2016-08-31T01:16:50.139Z,13.5
2016-08-31T01:17:14.290Z,13.5
2016-08-31T01:17:38.445Z,13.5
2016-08-31T01:18:02.579Z,13.5
2016-08-31T01:18:26.729Z,13.5
2016-08-31T01:18:50.884Z,13.4
2016-08-31T01:19:14.995Z,13.4
2016-08-31T01:19:39.132Z,13.4
2016-08-31T01:20:03.301Z,13.5
2016-08-31T01:20:28.015Z,13.5
2016-08-31T01:20:52.137Z,13.5
2016-08-31T01:21:16.249Z,13.5
2016-08-31T01:21:40.409Z,13.5
2016-08-31T01:22:04.563Z,13.5
2016-08-31T01:22:28.701Z,13.5
2016-08-31T01:22:52.837Z,13.4
2016-08-31T01:23:16.989Z,13.5
2016-08-31T01:23:41.142Z,13.5
2016-08-31T01:24:05.277Z,13.5
2016-08-31T01:24:29.413Z,13.5
2016-08-31T01:24:53.572Z,13.5
2016-08-31T01:25:17.733Z,13.5
2016-08-31T01:25:41.885Z,13.4
2016-08-31T01:26:06.026Z,13.5
2016-08-31T01:26:30.159Z,13.5
2016-08-31T01:26:54.311Z,13.6
2016-08-31T01:27:18.451Z,13.5
2016-08-31T01:27:42.574Z,13.5
2016-08-31T01:28:06.736Z,13.5
2016-08-31T01:28:30.881Z,13.4
2016-08-31T01:28:55.069Z,13.5
2016-08-31T01:29:19.223Z,13.4
2016-08-31T01:29:43.401Z,13.5
2016-08-31T01:30:07.543Z,13.5
2016-08-31T01:30:31.850Z,13.6
2016-08-31T01:30:55.972Z,13.5
2016-08-31T01:31:20.134Z,13.5
2016-08-31T01:31:44.322Z,13.4
2016-08-31T01:32:08.468Z,13.5
2016-08-31T01:32:32.624Z,13.5
2016-08-31T01:32:56.780Z,13.5
2016-08-31T01:33:20.939Z,13.4
2016-08-31T01:33:45.073Z,13.5
2016-08-31T01:34:09.191Z,13.4
2016-08-31T01:34:33.336Z,13.5
2016-08-31T01:34:57.502Z,13.4
2016-08-31T01:35:21.640Z,13.6
2016-08-31T01:35:45.765Z,13.6
2016-08-31T01:36:09.901Z,13.5
2016-08-31T01:36:34.070Z,13.4
2016-08-31T01:36:58.211Z,13.4
2016-08-31T01:37:22.365Z,13.4
2016-08-31T01:37:46.517Z,13.4
2016-08-31T01:38:10.672Z,13.4
2016-08-31T01:38:34.817Z,13.3
2016-08-31T01:38:58.959Z,13.4
2016-08-31T01:39:23.108Z,13.4
2016-08-31T01:39:47.248Z,13.4
2016-08-31T01:40:11.400Z,13.3
2016-08-31T01:40:35.571Z,13.4
2016-08-31T01:40:59.717Z,13.4
2016-08-31T01:41:23.868Z,13.3
2016-08-31T01:41:48.020Z,13.3
2016-08-31T01:42:12.185Z,13.3
2016-08-31T01:42:36.330Z,13.4
2016-08-31T01:43:00.490Z,13.4
2016-08-31T01:43:24.645Z,13.3
2016-08-31T01:43:48.776Z,13.4
2016-08-31T01:44:12.931Z,13.3
2016-08-31T01:44:37.056Z,13.3
2016-08-31T01:45:01.195Z,13.4
2016-08-31T01:45:25.996Z,13.4
2016-08-31T01:45:50.159Z,13.3
2016-08-31T01:46:14.304Z,13.4
2016-08-31T01:46:38.439Z,13.4
2016-08-31T01:47:02.572Z,13.3
2016-08-31T01:47:26.701Z,13.3
2016-08-31T01:47:50.853Z,13.3
2016-08-31T01:48:15.001Z,13.4
2016-08-31T01:48:39.140Z,13.3
2016-08-31T01:49:03.311Z,13.3
2016-08-31T01:49:27.445Z,13.3
2016-08-31T01:49:51.598Z,13.3
2016-08-31T01:50:15.757Z,13.4
2016-08-31T01:50:39.926Z,13.3
2016-08-31T01:51:04.075Z,13.4
2016-08-31T01:51:28.250Z,13.3
2016-08-31T01:51:52.400Z,13.3
2016-08-31T01:52:16.519Z,13.3
2016-08-31T01:52:40.672Z,13.3
2016-08-31T01:53:04.830Z,13.3
2016-08-31T01:53:28.986Z,13.3
2016-08-31T01:53:55.690Z,13.3
2016-08-31T01:54:19.838Z,13.3
2016-08-31T01:54:44.003Z,13.3
2016-08-31T01:55:08.148Z,13.4
2016-08-31T01:55:32.307Z,13.3
2016-08-31T01:55:56.469Z,13.3
2016-08-31T01:56:20.635Z,13.3
2016-08-31T01:56:44.774Z,13.3
2016-08-31T01:57:08.911Z,13.3
2016-08-31T01:57:33.075Z,13.3
2016-08-31T01:57:57.220Z,13.3
2016-08-31T01:58:21.359Z,13.2
2016-08-31T01:58:45.500Z,13.3
2016-08-31T01:59:09.650Z,13.3
2016-08-31T01:59:33.803Z,13.2
2016-08-31T01:59:57.946Z,13.2
2016-08-31T02:00:22.244Z,13.2
2016-08-31T02:00:46.386Z,13.2
2016-08-31T02:01:10.516Z,13.2
2016-08-31T02:01:34.685Z,13.2
2016-08-31T02:01:58.856Z,13.3
2016-08-31T02:02:23.023Z,13.2
2016-08-31T02:02:47.190Z,13.2
2016-08-31T02:03:11.323Z,13.2
2016-08-31T02:03:35.475Z,13.2
2016-08-31T02:03:59.615Z,13.2
2016-08-31T02:04:23.786Z,13.2
2016-08-31T02:04:47.932Z,13.2
2016-08-31T02:05:12.090Z,13.2
2016-08-31T02:05:36.222Z,13.3
2016-08-31T02:06:00.366Z,13.2
2016-08-31T02:06:24.478Z,13.2
2016-08-31T02:06:48.604Z,13.2
2016-08-31T02:07:12.763Z,13.3
2016-08-31T02:07:36.911Z,13.2
2016-08-31T02:08:00.858Z,13.2
2016-08-31T02:08:25.003Z,13.3
2016-08-31T02:08:49.177Z,13.2
2016-08-31T02:09:13.458Z,13.2
2016-08-31T02:09:37.633Z,13.2
2016-08-31T02:10:01.784Z,13.2
2016-08-31T02:10:25.924Z,13.2
2016-08-31T02:10:50.103Z,13.2
2016-08-31T02:11:14.235Z,13.2
2016-08-31T02:11:38.409Z,13.2
2016-08-31T02:12:02.565Z,13.2
2016-08-31T02:12:26.706Z,13.2
2016-08-31T02:12:50.853Z,13.1
2016-08-31T02:13:14.989Z,13.1
2016-08-31T02:13:39.155Z,13.1
2016-08-31T02:14:03.306Z,13.1
2016-08-31T02:14:27.454Z,13.2
2016-08-31T02:14:51.595Z,13.1
2016-08-31T02:15:15.765Z,13
2016-08-31T02:15:39.991Z,13.1
2016-08-31T02:16:04.159Z,13.1
2016-08-31T02:16:28.312Z,13.1
2016-08-31T02:16:52.455Z,13.1
2016-08-31T02:17:16.622Z,13.1
2016-08-31T02:17:40.751Z,13.1
2016-08-31T02:18:04.909Z,13.1
2016-08-31T02:18:29.055Z,13.1
2016-08-31T02:18:53.195Z,13.1
2016-08-31T02:19:17.325Z,13.1
2016-08-31T02:19:41.483Z,13.2
2016-08-31T02:20:05.659Z,13.1
2016-08-31T02:20:29.842Z,13.1
2016-08-31T02:20:53.954Z,13.2
2016-08-31T02:21:18.098Z,13.1
2016-08-31T02:21:42.265Z,13.1
2016-08-31T02:22:06.410Z,13.1
2016-08-31T02:22:30.539Z,13.1
2016-08-31T02:22:54.696Z,13.1
2016-08-31T02:23:18.840Z,13.1
2016-08-31T02:23:42.960Z,13.1
2016-08-31T02:24:07.098Z,13.1
2016-08-31T02:24:31.247Z,13.2
2016-08-31T02:24:55.399Z,13.2
2016-08-31T02:25:19.600Z,13.1
2016-08-31T02:25:43.757Z,13.1
2016-08-31T02:26:07.895Z,13.1
2016-08-31T02:26:32.031Z,13.1
2016-08-31T02:26:56.182Z,13.1
2016-08-31T02:27:20.311Z,13.1
2016-08-31T02:27:44.444Z,13.1
2016-08-31T02:28:08.597Z,13.1
2016-08-31T02:28:32.747Z,13.2
2016-08-31T02:28:56.890Z,13.1
2016-08-31T02:29:21.021Z,13.1
2016-08-31T02:29:45.175Z,13.1
2016-08-31T02:30:09.320Z,13
2016-08-31T02:30:33.468Z,13.1
2016-08-31T02:30:57.626Z,13.2
2016-08-31T02:31:21.763Z,13.1
2016-08-31T02:31:45.892Z,13.2
2016-08-31T02:32:10.079Z,13.1
2016-08-31T02:32:34.226Z,13.1
2016-08-31T02:32:58.364Z,13.1
2016-08-31T02:33:22.509Z,13.1
2016-08-31T02:33:46.646Z,13.1
2016-08-31T02:34:10.782Z,13.2
2016-08-31T02:34:34.914Z,13.1
2016-08-31T02:34:59.055Z,13.1
2016-08-31T02:35:23.917Z,13.1
2016-08-31T02:35:48.082Z,13.1
2016-08-31T02:36:12.233Z,13.1
2016-08-31T02:36:36.388Z,13
2016-08-31T02:37:00.499Z,13
2016-08-31T02:37:24.649Z,13.1
2016-08-31T02:37:48.787Z,13.1
2016-08-31T02:38:12.953Z,13.1
2016-08-31T02:38:37.093Z,13.1
2016-08-31T02:39:01.253Z,13.1
2016-08-31T02:39:25.414Z,13.1
2016-08-31T02:39:49.574Z,13.1
2016-08-31T02:40:14.421Z,13.1
2016-08-31T02:40:38.573Z,13
2016-08-31T02:41:02.741Z,13.1
2016-08-31T02:41:26.892Z,13.1
2016-08-31T02:41:51.011Z,13.1
2016-08-31T02:42:15.214Z,13
2016-08-31T02:42:39.375Z,13.1
2016-08-31T02:43:03.542Z,13.1
2016-08-31T02:43:27.707Z,13
2016-08-31T02:43:51.869Z,13.1
2016-08-31T02:44:16.011Z,13.1
2016-08-31T02:44:40.176Z,13.1
2016-08-31T02:45:04.309Z,13.1
2016-08-31T02:45:28.474Z,13
2016-08-31T02:45:52.598Z,13.1
2016-08-31T02:46:16.740Z,13
2016-08-31T02:46:40.877Z,13
2016-08-31T02:47:05.045Z,13
2016-08-31T02:47:29.200Z,13
2016-08-31T02:47:53.357Z,13
2016-08-31T02:48:17.501Z,13
2016-08-31T02:48:41.642Z,13
2016-08-31T02:49:05.795Z,13
2016-08-31T02:49:29.950Z,13
2016-08-31T02:49:54.082Z,13
2016-08-31T02:50:18.529Z,13
2016-08-31T02:50:42.674Z,13
2016-08-31T02:51:06.870Z,13
2016-08-31T02:51:31.016Z,13
2016-08-31T02:51:55.184Z,13
2016-08-31T02:52:19.370Z,13
2016-08-31T02:52:43.522Z,13
2016-08-31T02:53:07.667Z,13
2016-08-31T02:53:31.798Z,13
2016-08-31T02:53:55.969Z,13
2016-08-31T02:54:20.125Z,12.9
2016-08-31T02:54:44.255Z,13
2016-08-31T02:55:08.457Z,12.9
2016-08-31T02:55:32.599Z,12.9
2016-08-31T02:55:56.765Z,12.9
2016-08-31T02:56:20.960Z,12.9
2016-08-31T02:56:45.114Z,12.9
2016-08-31T02:57:09.269Z,13
2016-08-31T02:57:33.424Z,13
2016-08-31T02:57:57.563Z,13
2016-08-31T02:58:21.699Z,13
2016-08-31T02:58:45.856Z,12.9
2016-08-31T02:59:09.979Z,13
2016-08-31T02:59:34.098Z,12.9
2016-08-31T02:59:58.256Z,13
2016-08-31T03:00:22.730Z,13
2016-08-31T03:00:46.893Z,13
2016-08-31T03:01:11.040Z,13
2016-08-31T03:01:35.200Z,12.9
2016-08-31T03:01:59.344Z,13
2016-08-31T03:02:23.495Z,13
2016-08-31T03:02:47.612Z,13
2016-08-31T03:03:11.776Z,12.9
2016-08-31T03:03:35.926Z,13.1
2016-08-31T03:04:00.053Z,12.9
2016-08-31T03:04:24.204Z,12.9
2016-08-31T03:04:48.335Z,12.9
2016-08-31T03:05:12.507Z,13
2016-08-31T03:05:36.629Z,13
2016-08-31T03:06:00.780Z,12.9
2016-08-31T03:06:24.911Z,13
2016-08-31T03:06:49.104Z,12.9
2016-08-31T03:07:13.254Z,12.9
2016-08-31T03:07:37.386Z,12.9
2016-08-31T03:08:01.541Z,12.9
2016-08-31T03:08:25.701Z,12.9
2016-08-31T03:08:49.854Z,12.9
2016-08-31T03:09:14.000Z,12.9
2016-08-31T03:09:38.144Z,12.9
2016-08-31T03:10:02.319Z,13
2016-08-31T03:10:26.417Z,12.9
2016-08-31T03:10:50.556Z,12.9
2016-08-31T03:11:14.677Z,13
2016-08-31T03:11:38.824Z,12.9
2016-08-31T03:12:02.951Z,12.9
2016-08-31T03:12:27.100Z,12.9
2016-08-31T03:12:51.419Z,12.9
2016-08-31T03:13:15.842Z,12.9
2016-08-31T03:13:40.013Z,12.9
2016-08-31T03:14:04.167Z,12.8
2016-08-31T03:14:28.335Z,12.8
2016-08-31T03:14:52.473Z,12.8
2016-08-31T03:15:16.957Z,12.8
2016-08-31T03:15:41.098Z,12.9
2016-08-31T03:16:05.236Z,12.8
2016-08-31T03:16:29.364Z,12.9
2016-08-31T03:16:53.520Z,12.8
2016-08-31T03:17:17.674Z,12.8
2016-08-31T03:17:41.831Z,12.8
2016-08-31T03:18:05.960Z,12.8
2016-08-31T03:18:30.091Z,12.8
2016-08-31T03:18:54.233Z,12.9
2016-08-31T03:19:18.387Z,12.9
2016-08-31T03:19:42.532Z,12.9
2016-08-31T03:20:06.682Z,12.8
2016-08-31T03:20:30.868Z,12.8
2016-08-31T03:20:55.001Z,12.9
2016-08-31T03:21:19.127Z,12.9
2016-08-31T03:21:43.289Z,12.9
2016-08-31T03:22:07.452Z,12.9
2016-08-31T03:22:31.604Z,12.8
2016-08-31T03:22:55.758Z,12.9
2016-08-31T03:23:19.893Z,12.9
2016-08-31T03:23:44.040Z,12.9
2016-08-31T03:24:08.183Z,12.8
2016-08-31T03:24:32.346Z,12.8
2016-08-31T03:24:56.508Z,12.9
2016-08-31T03:25:21.224Z,12.9
2016-08-31T03:25:45.363Z,12.8
2016-08-31T03:26:09.500Z,12.9
2016-08-31T03:26:33.667Z,12.8
2016-08-31T03:26:57.825Z,12.9
2016-08-31T03:27:21.978Z,12.9
2016-08-31T03:27:46.132Z,12.9
2016-08-31T03:28:10.264Z,12.8
2016-08-31T03:28:34.415Z,12.9
2016-08-31T03:28:58.549Z,12.8
2016-08-31T03:29:22.670Z,12.8
2016-08-31T03:29:46.838Z,12.8
2016-08-31T03:30:11.178Z,12.9
2016-08-31T03:30:35.305Z,12.9
2016-08-31T03:30:59.458Z,12.8
2016-08-31T03:31:23.591Z,12.8
2016-08-31T03:31:47.717Z,12.8
2016-08-31T03:32:11.884Z,12.7
2016-08-31T03:32:36.049Z,12.7
2016-08-31T03:33:00.181Z,12.7
2016-08-31T03:33:25.132Z,12.7
2016-08-31T03:33:49.268Z,12.7
2016-08-31T03:34:13.432Z,12.7
2016-08-31T03:34:37.574Z,12.8
2016-08-31T03:35:01.705Z,12.7
2016-08-31T03:35:26.277Z,12.7
2016-08-31T03:35:50.440Z,12.7
2016-08-31T03:36:14.573Z,12.7
2016-08-31T03:36:38.716Z,12.7
2016-08-31T03:37:02.849Z,12.7
2016-08-31T03:37:27.012Z,12.7
2016-08-31T03:37:51.204Z,12.7
2016-08-31T03:38:15.358Z,12.7
2016-08-31T03:38:39.515Z,12.7
2016-08-31T03:39:03.671Z,12.7
2016-08-31T03:39:27.822Z,12.7
2016-08-31T03:39:51.945Z,12.7
2016-08-31T03:40:16.093Z,12.8
2016-08-31T03:40:40.269Z,12.8
2016-08-31T03:41:04.405Z,12.7
2016-08-31T03:41:28.538Z,12.8
2016-08-31T03:41:52.689Z,12.7
2016-08-31T03:42:16.853Z,12.7
2016-08-31T03:42:41.004Z,12.7
2016-08-31T03:43:05.140Z,12.8
2016-08-31T03:43:29.275Z,12.7
2016-08-31T03:43:53.422Z,12.7
2016-08-31T03:44:17.555Z,12.7
2016-08-31T03:44:41.687Z,12.7
2016-08-31T03:45:05.838Z,12.7
2016-08-31T03:45:30.031Z,12.7
2016-08-31T03:45:54.167Z,12.7
2016-08-31T03:46:18.327Z,12.8
2016-08-31T03:46:42.471Z,12.8
2016-08-31T03:47:06.596Z,12.8
2016-08-31T03:47:30.755Z,12.7
2016-08-31T03:47:54.918Z,12.7
2016-08-31T03:48:19.073Z,12.7
2016-08-31T03:48:43.230Z,12.7
2016-08-31T03:49:07.355Z,12.7
2016-08-31T03:49:31.503Z,12.6
2016-08-31T03:49:55.670Z,12.7
2016-08-31T03:50:19.961Z,12.7
2016-08-31T03:50:44.104Z,12.7
2016-08-31T03:51:08.249Z,12.6
2016-08-31T03:51:32.409Z,12.7
2016-08-31T03:51:56.540Z,12.7
2016-08-31T03:52:20.689Z,12.7
2016-08-31T03:52:44.838Z,12.6
2016-08-31T03:53:09.000Z,12.6
2016-08-31T03:53:33.147Z,12.6
2016-08-31T03:53:57.296Z,12.7
2016-08-31T03:54:21.432Z,12.6
2016-08-31T03:54:45.594Z,12.6
2016-08-31T03:55:09.718Z,12.6
2016-08-31T03:55:33.866Z,12.6
2016-08-31T03:55:58.007Z,12.6
2016-08-31T03:56:22.154Z,12.5
2016-08-31T03:56:46.274Z,12.6
2016-08-31T03:57:10.421Z,12.6
2016-08-31T03:57:34.600Z,12.6
2016-08-31T03:57:58.758Z,12.6
2016-08-31T03:58:22.895Z,12.6
2016-08-31T03:58:47.041Z,12.6
2016-08-31T03:59:11.173Z,12.6
2016-08-31T03:59:35.315Z,12.6
2016-08-31T03:59:59.489Z,12.6
2016-08-31T04:00:24.059Z,12.6
2016-08-31T04:00:48.226Z,12.6
2016-08-31T04:01:12.391Z,12.7
2016-08-31T04:01:36.527Z,12.7
2016-08-31T04:02:00.681Z,12.6
2016-08-31T04:02:24.855Z,12.6
2016-08-31T04:02:48.968Z,12.6
2016-08-31T04:03:13.135Z,12.6
2016-08-31T04:03:37.318Z,12.5
2016-08-31T04:04:01.482Z,12.5
2016-08-31T04:04:25.643Z,12.6
2016-08-31T04:04:49.805Z,12.6
2016-08-31T04:05:13.951Z,12.6
2016-08-31T04:05:38.154Z,12.6
2016-08-31T04:06:02.285Z,12.6
2016-08-31T04:06:26.420Z,12.6
2016-08-31T04:06:50.562Z,12.6
2016-08-31T04:07:14.726Z,12.6
2016-08-31T04:07:38.876Z,12.6
2016-08-31T04:08:03.055Z,12.5
2016-08-31T04:08:27.219Z,12.7
2016-08-31T04:08:51.372Z,12.6
2016-08-31T04:09:15.503Z,12.6
2016-08-31T04:09:39.653Z,12.6
2016-08-31T04:10:03.797Z,12.6
2016-08-31T04:10:27.946Z,12.6
2016-08-31T04:10:52.095Z,12.6
2016-08-31T04:11:16.244Z,12.6
2016-08-31T04:11:40.383Z,12.6
2016-08-31T04:12:04.525Z,12.6
2016-08-31T04:12:28.678Z,12.5
2016-08-31T04:12:52.859Z,12.6
2016-08-31T04:13:17.025Z,12.5
2016-08-31T04:13:41.173Z,12.7
2016-08-31T04:14:05.347Z,12.6
2016-08-31T04:14:29.490Z,12.6
2016-08-31T04:14:53.641Z,12.6
2016-08-31T04:15:17.790Z,12.6
2016-08-31T04:15:41.920Z,12.6
2016-08-31T04:16:06.084Z,12.6
2016-08-31T04:16:30.227Z,12.6
2016-08-31T04:16:54.355Z,12.6
2016-08-31T04:17:18.511Z,12.6
2016-08-31T04:17:42.656Z,12.6
2016-08-31T04:18:06.779Z,12.6
2016-08-31T04:18:30.945Z,12.7
2016-08-31T04:18:55.120Z,12.6
2016-08-31T04:19:19.264Z,12.5
2016-08-31T04:19:43.406Z,12.6
2016-08-31T04:20:07.553Z,12.6
2016-08-31T04:20:32.193Z,12.6
2016-08-31T04:20:56.348Z,12.5
2016-08-31T04:21:20.481Z,12.6
2016-08-31T04:21:44.615Z,12.5
2016-08-31T04:22:08.789Z,12.6
2016-08-31T04:22:32.934Z,12.6
2016-08-31T04:22:57.083Z,12.6
2016-08-31T04:23:21.256Z,12.6
2016-08-31T04:23:45.425Z,12.5
2016-08-31T04:24:09.580Z,12.6
2016-08-31T04:24:33.738Z,12.6
2016-08-31T04:24:57.906Z,12.5
2016-08-31T04:25:22.103Z,12.5
2016-08-31T04:25:46.248Z,12.6
2016-08-31T04:26:10.399Z,12.5
2016-08-31T04:26:34.547Z,12.6
2016-08-31T04:26:58.707Z,12.6
2016-08-31T04:27:22.841Z,12.5
2016-08-31T04:27:47.008Z,12.5
2016-08-31T04:28:11.158Z,12.7
2016-08-31T04:28:35.295Z,12.7
2016-08-31T04:28:59.456Z,12.6
2016-08-31T04:29:23.623Z,12.5
2016-08-31T04:29:47.790Z,12.6
2016-08-31T04:30:11.932Z,12.5
2016-08-31T04:30:36.064Z,12.6
2016-08-31T04:31:00.208Z,12.6
2016-08-31T04:31:24.356Z,12.6
2016-08-31T04:31:48.493Z,12.6
2016-08-31T04:32:12.636Z,12.6
2016-08-31T04:32:36.798Z,12.5
2016-08-31T04:33:00.946Z,12.6
2016-08-31T04:33:25.085Z,12.6
2016-08-31T04:33:49.238Z,12.6
2016-08-31T04:34:13.395Z,12.6
2016-08-31T04:34:37.559Z,12.6
2016-08-31T04:35:01.701Z,12.7
2016-08-31T04:35:25.836Z,12.6
2016-08-31T04:35:50.005Z,12.6
2016-08-31T04:36:14.183Z,12.5
2016-08-31T04:36:38.340Z,12.5
2016-08-31T04:37:02.502Z,12.6
2016-08-31T04:37:26.658Z,12.6
2016-08-31T04:37:50.805Z,12.7
2016-08-31T04:38:14.961Z,12.6
2016-08-31T04:38:39.110Z,12.7
2016-08-31T04:39:03.257Z,12.6
2016-08-31T04:39:27.407Z,12.6
2016-08-31T04:39:51.550Z,12.7
2016-08-31T04:40:15.822Z,12.7
2016-08-31T04:40:39.981Z,12.6
2016-08-31T04:41:04.958Z,12.6
2016-08-31T04:41:29.114Z,12.6
2016-08-31T04:41:53.259Z,12.7
2016-08-31T04:42:17.428Z,12.8
2016-08-31T04:42:41.548Z,12.6
2016-08-31T04:43:05.689Z,12.7
2016-08-31T04:43:29.851Z,12.7
2016-08-31T04:43:54.006Z,12.7
2016-08-31T04:44:18.325Z,12.7
2016-08-31T04:44:42.493Z,12.7
2016-08-31T04:45:06.642Z,12.8
2016-08-31T04:45:30.782Z,12.7
2016-08-31T04:45:54.941Z,12.7
2016-08-31T04:46:19.080Z,12.8
2016-08-31T04:46:43.232Z,12.7
2016-08-31T04:47:07.374Z,12.7
2016-08-31T04:47:31.528Z,12.7
2016-08-31T04:47:55.721Z,12.7
2016-08-31T04:48:19.880Z,12.8
2016-08-31T04:48:44.033Z,12.9
2016-08-31T04:49:08.186Z,12.8
2016-08-31T04:49:32.312Z,12.9
2016-08-31T04:49:56.467Z,12.9
2016-08-31T04:50:20.646Z,12.8
2016-08-31T04:50:44.818Z,12.8
2016-08-31T04:51:08.973Z,12.9
2016-08-31T04:51:33.104Z,12.9
2016-08-31T04:51:57.246Z,12.8
2016-08-31T04:52:21.401Z,12.8
2016-08-31T04:52:45.532Z,12.9
2016-08-31T04:53:09.689Z,12.9
2016-08-31T04:53:33.839Z,12.9
2016-08-31T04:53:57.999Z,12.9
2016-08-31T04:54:22.155Z,12.9
2016-08-31T04:54:46.315Z,12.9
2016-08-31T04:55:10.462Z,12.9
2016-08-31T04:55:35.155Z,13
2016-08-31T04:55:59.271Z,12.9
2016-08-31T04:56:23.427Z,13
2016-08-31T04:56:47.583Z,13
2016-08-31T04:57:11.750Z,13
2016-08-31T04:57:35.890Z,13
2016-08-31T04:58:00.057Z,13
2016-08-31T04:58:24.212Z,13
2016-08-31T04:58:48.390Z,13
2016-08-31T04:59:12.543Z,13
2016-08-31T04:59:36.684Z,13.1
2016-08-31T05:00:00.883Z,13
2016-08-31T05:00:25.472Z,13.1
2016-08-31T05:00:50.031Z,13.1
2016-08-31T05:01:14.554Z,13.1
2016-08-31T05:01:38.797Z,13.1
2016-08-31T05:02:03.156Z,13.2
2016-08-31T05:02:27.716Z,13.2
2016-08-31T05:02:52.192Z,13.2
2016-08-31T05:03:16.838Z,13.2
2016-08-31T05:03:41.167Z,13.2
2016-08-31T05:04:05.632Z,13.2
2016-08-31T05:04:29.964Z,13.3
2016-08-31T05:04:54.390Z,13.2
2016-08-31T05:05:18.779Z,13.3
2016-08-31T05:05:43.388Z,13.2
2016-08-31T05:06:07.889Z,13.2
2016-08-31T05:06:32.302Z,13.2
2016-08-31T05:06:56.730Z,13.2
2016-08-31T05:07:21.259Z,13.2
2016-08-31T05:07:45.780Z,13.3
2016-08-31T05:08:10.300Z,13.2
2016-08-31T05:08:35.001Z,13.3
2016-08-31T05:08:59.526Z,13.3
2016-08-31T05:09:24.185Z,13.3
2016-08-31T05:09:48.609Z,13.3
2016-08-31T05:10:13.623Z,13.3
2016-08-31T05:10:38.313Z,13.3
2016-08-31T05:11:02.919Z,13.4
2016-08-31T05:11:27.229Z,13.4
2016-08-31T05:11:51.584Z,13.3
2016-08-31T05:12:16.097Z,13.4
2016-08-31T05:12:40.507Z,13.4
2016-08-31T05:13:04.937Z,13.3
2016-08-31T05:13:29.762Z,13.4
2016-08-31T05:13:54.290Z,13.4
2016-08-31T05:14:18.890Z,13.4
2016-08-31T05:14:43.184Z,13.4
2016-08-31T05:15:08.109Z,13.4
2016-08-31T05:15:32.545Z,13.4
2016-08-31T05:15:57.246Z,13.4
2016-08-31T05:16:21.831Z,13.4
2016-08-31T05:16:46.305Z,13.4
2016-08-31T05:17:11.253Z,13.4
2016-08-31T05:17:35.829Z,13.5
2016-08-31T05:18:00.320Z,13.5
2016-08-31T05:18:24.799Z,13.4
2016-08-31T05:18:49.150Z,13.5
2016-08-31T05:19:13.527Z,13.5
2016-08-31T05:19:38.279Z,13.4
2016-08-31T05:20:02.795Z,13.5
2016-08-31T05:20:27.324Z,13.4
2016-08-31T05:20:51.882Z,13.4
2016-08-31T05:21:16.398Z,13.5
2016-08-31T05:21:40.877Z,13.5
2016-08-31T05:22:05.208Z,13.4
2016-08-31T05:22:29.632Z,13.5
2016-08-31T05:22:54.028Z,13.5
2016-08-31T05:23:18.548Z,13.4
2016-08-31T05:23:43.415Z,13.5
2016-08-31T05:24:07.980Z,13.5